Time;durP1;ratioP1;P1;durP2;ratioP2;P2;SDS_P1;SDS_P2;PMS_P1;PMS_P2;Temp;Humidity;BMP_temperature;BMP_pressure;BME280_temperature;BME280_humidity;BME280_pressure;Samples;Min_cycle;Max_cycle;Signal;HPM_P1;HPM_P2
2022/01/24 00:00:31;;;;;;;;;;;;;;;-144.99;100.00;52696.78;5041396;28;20196;-73
2022/01/24 00:02:58;;;;;;;;;;;;;;;-144.99;100.00;52725.31;5047204;28;19924;-74
2022/01/24 00:05:24;;;;;;;;;;;;;;;-144.99;100.00;52688.63;5051173;28;19929;-77
2022/01/24 00:07:50;;;;;;;;;;;;;;;-144.99;100.00;52672.31;5053660;28;20375;-77
2022/01/24 00:10:21;;;;;;;;;;;;;;;-144.99;100.00;52660.09;5044024;28;19921;-72
2022/01/24 00:13:00;;;;;;;;;;;;;;;-144.99;100.00;52741.63;5044515;28;19968;-73
2022/01/24 00:15:49;;;;;;;;;;;;;;;-144.99;100.00;52704.94;5048798;28;20028;-76
2022/01/24 00:18:25;;;;;;;;;;;;;;;-144.99;100.00;52668.22;5048749;28;19931;-74
2022/01/24 00:29:05;;;;;;;;;;;;;;;-144.99;100.00;52676.38;5049399;28;19939;-74
2022/01/24 00:31:31;;;;;;;;;;;;;;;-144.99;100.00;52676.38;5041430;28;19925;-76
2022/01/24 00:33:57;;;;;;;;;;;;;;;-144.99;100.00;52700.84;5044390;28;19921;-77
2022/01/24 00:36:24;;;;;;;;;;;;;;;-144.99;100.00;52688.63;5046317;28;19925;-76
2022/01/24 00:38:50;;;;;;;;;;;;;;;-144.99;100.00;52668.22;5047573;28;19920;-72
2022/01/24 00:41:19;;;;;;;;;;;;;;;-144.99;100.00;52684.53;5047904;28;19924;-75
2022/01/24 00:44:00;;;;;;;;;;;;;;;-144.99;100.00;52700.84;5045560;28;19994;-77
2022/01/24 00:46:34;;;;;;;;;;;;;;;-144.99;100.00;52664.16;5047799;28;19924;-78
2022/01/24 00:49:20;;;;;;;;;;;;;;;-144.99;100.00;52717.16;5046590;28;19935;-76
2022/01/24 00:54:47;;;;;;;;;;;;;;;-144.99;100.00;52688.63;5045591;28;20759;-74
2022/01/24 00:57:14;;;;;;;;;;;;;;;-144.99;100.00;52711.03;5047669;28;19921;-75
2022/01/24 00:59:41;;;;;;;;;;;;;;;-144.99;100.00;52694.72;5046957;28;19931;-78
2022/01/24 01:02:09;;;;;;;;;;;;;;;-144.99;100.00;52656.00;5046126;28;20342;-74
2022/01/24 01:04:45;;;;;;;;;;;;;;;-144.99;100.00;52690.66;5048278;28;19931;-77
2022/01/24 01:07:11;;;;;;;;;;;;;;;-144.99;100.00;52692.69;5053256;28;19930;-74
2022/01/24 01:18:15;;;;;;;;;;;;;;;-144.99;100.00;52737.53;5044036;28;19982;-73
2022/01/24 01:20:58;;;;;;;;;;;;;;;-144.99;100.00;52711.03;5047869;28;20451;-74
2022/01/24 01:23:25;;;;;;;;;;;;;;;-144.99;100.00;52690.66;5048821;28;20024;-74
2022/01/24 01:25:53;;;;;;;;;;;;;;;-144.99;100.00;52690.66;5044460;28;19921;-74
2022/01/24 01:28:20;;;;;;;;;;;;;;;-144.99;100.00;52684.53;5047427;28;19978;-74
2022/01/24 01:30:50;;;;;;;;;;;;;;;-144.99;100.00;52692.69;5048067;28;19928;-76
2022/01/24 01:33:26;;;;;;;;;;;;;;;-144.99;100.00;52656.00;5043395;28;19921;-75
2022/01/24 01:36:04;;;;;;;;;;;;;;;-144.99;100.00;52723.28;5044903;28;19924;-74
2022/01/24 01:52:28;;;;;;;;;;;;;;;-144.99;100.00;52684.53;5044969;28;19927;-77
2022/01/24 01:55:09;;;;;;;;;;;;;;;-144.99;100.00;52660.09;4697077;28;10000043;-75
2022/01/24 01:57:37;;;;;;;;;;;;;;;-144.99;100.00;52662.13;5049408;28;19935;-75
2022/01/24 02:00:05;;;;;;;;;;;;;;;-144.99;100.00;52684.53;5045102;28;19974;-76
2022/01/24 02:02:31;;;;;;;;;;;;;;;-144.99;100.00;52692.69;5043137;28;19924;-74
2022/01/24 02:04:59;;;;;;;;;;;;;;;-144.99;100.00;52704.94;5046084;28;19928;-74
2022/01/24 02:07:25;;;;;;;;;;;;;;;-144.99;100.00;52704.94;5045770;28;20405;-76
2022/01/24 02:09:51;;;;;;;;;;;;;;;-144.99;100.00;52668.22;5046969;28;19943;-75
2022/01/24 02:12:21;;;;;;;;;;;;;;;-144.99;100.00;52684.53;5045238;28;19921;-75
2022/01/24 02:14:53;;;;;;;;;;;;;;;-144.99;100.00;52656.00;5043351;28;20084;-74
2022/01/24 02:17:27;;;;;;;;;;;;;;;-144.99;100.00;52717.16;5046417;28;20403;-75
2022/01/24 02:20:09;;;;;;;;;;;;;;;-144.99;100.00;52670.28;5056683;22;20258;-72
2022/01/24 02:25:26;;;;;;;;;;;;;;;-144.99;100.00;52700.84;5050123;28;20338;-73
2022/01/24 02:27:57;;;;;;;;;;;;;;;-144.99;100.00;52660.09;5050227;28;19921;-72
2022/01/24 02:30:41;;;;;;;;;;;;;;;-144.99;100.00;52651.94;5052331;28;19921;-74
2022/01/24 02:33:09;;;;;;;;;;;;;;;-144.99;100.00;52682.50;5052474;28;19921;-72
2022/01/24 02:35:35;;;;;;;;;;;;;;;-144.99;100.00;52656.00;5051420;28;19951;-73
2022/01/24 02:38:07;;;;;;;;;;;;;;;-144.99;100.00;52668.22;5052127;28;19940;-73
2022/01/24 02:40:34;;;;;;;;;;;;;;;-144.99;100.00;52635.63;5048602;28;20013;-73
2022/01/24 02:48:26;;;;;;;;;;;;;;;-144.99;100.00;52729.38;5061183;28;19908;-73
2022/01/24 02:51:18;;;;;;;;;;;;;;;-144.99;100.00;52676.38;5058835;28;19995;-73
2022/01/24 02:53:46;;;;;;;;;;;;;;;-144.99;100.00;52668.22;5057972;28;20236;-73
2022/01/24 02:56:13;;;;;;;;;;;;;;;-144.99;100.00;52660.09;5050856;28;19928;-73
2022/01/24 02:58:39;;;;;;;;;;;;;;;-144.99;100.00;52668.22;5044078;28;19932;-73
2022/01/24 03:01:07;;;;;;;;;;;;;;;-144.99;100.00;52656.00;5044437;28;19921;-73
2022/01/24 03:03:34;;;;;;;;;;;;;;;-144.99;100.00;52660.09;5045854;28;20399;-72
2022/01/24 03:06:00;;;;;;;;;;;;;;;-144.99;100.00;52694.72;5044783;28;19929;-73
2022/01/24 03:08:26;;;;;;;;;;;;;;;-144.99;100.00;52682.50;5051585;28;19928;-73
2022/01/24 03:10:54;;;;;;;;;;;;;;;-144.99;100.00;52700.84;5047632;28;19927;-73
2022/01/24 03:13:32;;;;;;;;;;;;;;;-144.99;100.00;52656.00;5047972;28;20402;-74
2022/01/24 03:15:59;;;;;;;;;;;;;;;-144.99;100.00;52660.09;5051911;28;19925;-73
2022/01/24 03:18:26;;;;;;;;;;;;;;;-144.99;100.00;52664.16;5051952;28;20447;-73
2022/01/24 03:20:52;;;;;;;;;;;;;;;-144.99;100.00;52664.16;5047270;28;19969;-73
2022/01/24 03:23:19;;;;;;;;;;;;;;;-144.99;100.00;52676.38;5049575;28;19928;-72
2022/01/24 03:25:46;;;;;;;;;;;;;;;-144.99;100.00;52664.16;5050481;28;20004;-73
2022/01/24 03:28:14;;;;;;;;;;;;;;;-144.99;100.00;52676.38;5051104;28;19932;-73
2022/01/24 03:30:41;;;;;;;;;;;;;;;-144.99;100.00;52674.34;5047329;28;19921;-73
2022/01/24 03:33:08;;;;;;;;;;;;;;;-144.99;100.00;52635.63;5047529;28;19921;-73
2022/01/24 03:35:35;;;;;;;;;;;;;;;-144.99;100.00;52680.47;5047429;28;19920;-72
2022/01/24 03:38:02;;;;;;;;;;;;;;;-144.99;100.00;52680.47;5047685;28;20390;-73
2022/01/24 03:40:28;;;;;;;;;;;;;;;-144.99;100.00;52692.69;5047349;28;20323;-74
2022/01/24 03:42:54;;;;;;;;;;;;;;;-144.99;100.00;52656.00;5047462;28;19920;-73
2022/01/24 03:45:36;;;;;;;;;;;;;;;-144.99;100.00;52656.00;5048068;28;19943;-73
2022/01/24 03:48:07;;;;;;;;;;;;;;;-144.99;100.00;52700.84;5048054;28;19955;-74
2022/01/24 03:50:34;;;;;;;;;;;;;;;-144.99;100.00;52643.78;5054943;28;20004;-74
2022/01/24 03:53:00;;;;;;;;;;;;;;;-144.99;100.00;52651.94;5054741;28;20295;-74
2022/01/24 03:55:26;;;;;;;;;;;;;;;-144.99;100.00;52653.97;5054152;28;19921;-74
2022/01/24 03:57:53;;;;;;;;;;;;;;;-144.99;100.00;52651.94;5047626;28;19929;-74
2022/01/24 04:00:20;;;;;;;;;;;;;;;-144.99;100.00;52664.16;5053173;28;20160;-74
2022/01/24 04:02:47;;;;;;;;;;;;;;;-144.99;100.00;52680.47;5055347;28;19920;-74
2022/01/24 04:05:14;;;;;;;;;;;;;;;-144.99;100.00;52676.38;5054851;28;20007;-74
2022/01/24 04:07:41;;;;;;;;;;;;;;;-144.99;100.00;52688.63;5064792;28;20395;-74
2022/01/24 04:10:09;;;;;;;;;;;;;;;-144.99;100.00;52696.78;5070334;28;19924;-74
2022/01/24 04:12:37;;;;;;;;;;;;;;;-144.99;100.00;52656.00;5057624;28;19921;-74
2022/01/24 04:15:12;;;;;;;;;;;;;;;-144.99;100.00;52694.72;5073484;28;19980;-74
2022/01/24 04:17:42;;;;;;;;;;;;;;;-144.99;100.00;52651.94;5072922;28;19908;-74
2022/01/24 04:22:57;;;;;;;;;;;;;;;-144.99;100.00;52680.47;5049675;28;19966;-74
2022/01/24 04:25:24;;;;;;;;;;;;;;;-144.99;100.00;52704.94;5041051;28;20354;-73
2022/01/24 04:27:54;;;;;;;;;;;;;;;-144.99;100.00;52700.84;5052389;28;19939;-74
2022/01/24 04:30:20;;;;;;;;;;;;;;;-144.99;100.00;52664.16;5053114;28;20322;-74
2022/01/24 04:32:47;;;;;;;;;;;;;;;-144.99;100.00;52629.50;5051773;28;19921;-73
2022/01/24 04:35:15;;;;;;;;;;;;;;;-144.99;100.00;52688.63;5054050;28;20044;-72
2022/01/24 04:37:42;;;;;;;;;;;;;;;-144.99;100.00;52700.84;5053901;28;19929;-73
2022/01/24 04:40:08;;;;;;;;;;;;;;;-144.99;100.00;52656.00;5053835;28;19921;-73
2022/01/24 04:42:44;;;;;;;;;;;;;;;-144.99;100.00;52676.38;5054299;28;19927;-74
2022/01/24 04:45:28;;;;;;;;;;;;;;;-144.99;100.00;52649.88;5053531;28;19931;-74
2022/01/24 04:50:56;;;;;;;;;;;;;;;-144.99;100.00;52670.28;5053583;28;19975;-75
2022/01/24 04:53:44;;;;;;;;;;;;;;;-144.99;100.00;52660.09;5054019;28;19928;-74
2022/01/24 04:56:10;;;;;;;;;;;;;;;-144.99;100.00;52647.84;5050103;28;19968;-74
2022/01/24 04:58:36;;;;;;;;;;;;;;;-144.99;100.00;52704.94;5043145;28;19921;-75
2022/01/24 05:01:03;;;;;;;;;;;;;;;-144.99;100.00;52651.94;5051080;28;19920;-74
2022/01/24 05:03:29;;;;;;;;;;;;;;;-144.99;100.00;52709.00;5053904;28;19952;-74
2022/01/24 05:05:57;;;;;;;;;;;;;;;-144.99;100.00;52717.16;5053859;28;19925;-75
2022/01/24 05:08:23;;;;;;;;;;;;;;;-144.99;100.00;52680.47;5053196;28;20183;-75
2022/01/24 05:10:58;;;;;;;;;;;;;;;-144.99;100.00;52698.81;5053458;28;19927;-73
2022/01/24 05:23:24;;;;;;;;;;;;;;;-144.99;100.00;52664.16;5043920;28;19928;-75
2022/01/24 05:24:22;;;;;;;;;;;;;;;-144.99;100.00;52678.44;5046105;28;20019;-76
2022/01/24 05:26:49;;;;;;;;;;;;;;;-144.99;100.00;52676.38;5043426;28;20363;-75
2022/01/24 05:29:15;;;;;;;;;;;;;;;-144.99;100.00;52678.44;5052652;28;19931;-76
2022/01/24 05:31:41;;;;;;;;;;;;;;;-144.99;100.00;52684.53;5053626;28;19921;-75
2022/01/24 05:34:08;;;;;;;;;;;;;;;-144.99;100.00;52680.47;5054123;28;20323;-76
2022/01/24 05:36:35;;;;;;;;;;;;;;;-144.99;100.00;52668.22;5053847;28;20462;-75
2022/01/24 05:39:02;;;;;;;;;;;;;;;-144.99;100.00;52684.53;5053468;28;19925;-76
2022/01/24 05:41:28;;;;;;;;;;;;;;;-144.99;100.00;52629.50;5054756;28;19928;-78
2022/01/24 05:43:54;;;;;;;;;;;;;;;-144.99;100.00;52647.84;5073212;28;19931;-76
2022/01/24 05:46:21;;;;;;;;;;;;;;;-144.99;100.00;52717.16;5072229;28;19931;-76
2022/01/24 05:48:47;;;;;;;;;;;;;;;-144.99;100.00;52686.59;5072756;28;19909;-75
2022/01/24 05:51:14;;;;;;;;;;;;;;;-144.99;100.00;52676.38;5071411;28;19921;-75
2022/01/24 05:53:42;;;;;;;;;;;;;;;-144.99;100.00;52664.16;5069750;28;20012;-75
2022/01/24 05:56:08;;;;;;;;;;;;;;;-144.99;100.00;52684.53;5064182;28;19920;-76
2022/01/24 05:58:34;;;;;;;;;;;;;;;-144.99;100.00;52696.78;5057266;28;19921;-76
2022/01/24 06:01:01;;;;;;;;;;;;;;;-144.99;100.00;52688.63;5054527;28;19925;-75
2022/01/24 06:03:27;;;;;;;;;;;;;;;-144.99;100.00;52674.34;5049620;28;19947;-75
2022/01/24 06:05:54;;;;;;;;;;;;;;;-144.99;100.00;52647.84;4348147;28;10000729;-74
2022/01/24 06:08:20;;;;;;;;;;;;;;;-144.99;100.00;52672.31;5052867;28;19921;-75
2022/01/24 06:10:48;;;;;;;;;;;;;;;-144.99;100.00;52656.00;5049966;28;20086;-76
2022/01/24 06:13:15;;;;;;;;;;;;;;;-144.99;100.00;52660.09;5050007;28;19932;-75
2022/01/24 06:15:42;;;;;;;;;;;;;;;-144.99;100.00;52660.09;5051731;28;19925;-75
2022/01/24 06:18:08;;;;;;;;;;;;;;;-144.99;100.00;52680.47;5037296;28;20387;-75
2022/01/24 06:20:35;;;;;;;;;;;;;;;-144.99;100.00;52692.69;5046374;28;19925;-76
2022/01/24 06:23:01;;;;;;;;;;;;;;;-144.99;100.00;52713.09;5045082;28;19929;-75
2022/01/24 06:25:29;;;;;;;;;;;;;;;-144.99;100.00;52668.22;5037016;28;19925;-75
2022/01/24 06:27:56;;;;;;;;;;;;;;;-144.99;100.00;52698.81;5048646;28;19974;-77
2022/01/24 06:30:23;;;;;;;;;;;;;;;-144.99;100.00;52676.38;5051165;28;20197;-74
2022/01/24 06:32:50;;;;;;;;;;;;;;;-144.99;100.00;52651.94;5048067;28;20448;-75
2022/01/24 06:35:16;;;;;;;;;;;;;;;-144.99;100.00;52696.78;5051261;28;20019;-78
2022/01/24 06:37:45;;;;;;;;;;;;;;;-144.99;100.00;52696.78;5050976;28;20397;-76
2022/01/24 06:40:12;;;;;;;;;;;;;;;-144.99;100.00;52692.69;5064434;28;19924;-76
2022/01/24 06:42:39;;;;;;;;;;;;;;;-144.99;100.00;52668.22;5062107;28;19921;-76
2022/01/24 06:45:08;;;;;;;;;;;;;;;-144.99;100.00;52678.44;5065787;28;20003;-76
2022/01/24 06:47:35;;;;;;;;;;;;;;;-144.99;100.00;52684.53;5065773;28;19924;-75
2022/01/24 06:50:01;;;;;;;;;;;;;;;-144.99;100.00;52704.94;5061299;28;19929;-76
2022/01/24 06:52:28;;;;;;;;;;;;;;;-144.99;100.00;52684.53;5051604;28;19921;-75
2022/01/24 06:54:54;;;;;;;;;;;;;;;-144.99;100.00;52696.78;5051507;28;19925;-75
2022/01/24 06:57:20;;;;;;;;;;;;;;;-144.99;100.00;52647.84;5041875;28;19920;-77
2022/01/24 06:59:48;;;;;;;;;;;;;;;-144.99;100.00;52676.38;5045205;28;19924;-75
2022/01/24 07:02:15;;;;;;;;;;;;;;;-144.99;100.00;52680.47;5051526;28;20459;-77
2022/01/24 07:04:43;;;;;;;;;;;;;;;-144.99;100.00;52676.38;5042822;28;19925;-78
2022/01/24 07:07:10;;;;;;;;;;;;;;;-144.99;100.00;52676.38;5047128;28;19962;-77
2022/01/24 07:09:36;;;;;;;;;;;;;;;-144.99;100.00;52623.38;5048527;28;19925;-76
2022/01/24 07:12:03;;;;;;;;;;;;;;;-144.99;100.00;52676.38;5049780;28;19928;-77
2022/01/24 07:14:29;;;;;;;;;;;;;;;-144.99;100.00;52660.09;5049739;28;19920;-77
2022/01/24 07:17:10;;;;;;;;;;;;;;;-144.99;100.00;52674.34;5050074;28;19960;-76
2022/01/24 07:19:38;;;;;;;;;;;;;;;-144.99;100.00;52676.38;5049007;28;20294;-78
2022/01/24 07:22:12;;;;;;;;;;;;;;;-144.99;100.00;52631.53;5046822;28;19994;-76
2022/01/24 07:24:39;;;;;;;;;;;;;;;-144.99;100.00;52678.44;5038939;28;19925;-76
2022/01/24 07:27:09;;;;;;;;;;;;;;;-144.99;100.00;52660.09;5041948;28;19937;-76
2022/01/24 07:29:36;;;;;;;;;;;;;;;-144.99;100.00;52643.78;5049784;28;19947;-75
2022/01/24 07:32:03;;;;;;;;;;;;;;;-144.99;100.00;52717.16;5049098;28;19921;-75
2022/01/24 07:34:29;;;;;;;;;;;;;;;-144.99;100.00;52662.13;5043664;28;19931;-75
2022/01/24 07:36:57;;;;;;;;;;;;;;;-144.99;100.00;52631.53;5049422;28;19924;-74
2022/01/24 07:39:23;;;;;;;;;;;;;;;-144.99;100.00;52656.00;5048595;28;20007;-75
2022/01/24 07:41:51;;;;;;;;;;;;;;;-144.99;100.00;52662.13;5049655;28;19924;-75
2022/01/24 07:44:20;;;;;;;;;;;;;;;-144.99;100.00;52692.69;5048068;28;19939;-75
2022/01/24 07:46:46;;;;;;;;;;;;;;;-144.99;100.00;52688.63;5049599;28;19924;-75
2022/01/24 07:49:13;;;;;;;;;;;;;;;-144.99;100.00;52694.72;5049631;28;19925;-75
2022/01/24 07:51:40;;;;;;;;;;;;;;;-144.99;100.00;52694.72;5051211;28;19928;-74
2022/01/24 07:54:08;;;;;;;;;;;;;;;-144.99;100.00;52660.09;5055229;28;19952;-75
2022/01/24 07:56:35;;;;;;;;;;;;;;;-144.99;100.00;52684.53;5049831;28;19924;-75
2022/01/24 07:59:01;;;;;;;;;;;;;;;-144.99;100.00;52692.69;5047687;28;19936;-76
2022/01/24 08:01:27;;;;;;;;;;;;;;;-144.99;100.00;52676.38;5053929;28;19924;-76
2022/01/24 08:03:53;;;;;;;;;;;;;;;-144.99;100.00;52688.63;5052746;28;20336;-76
2022/01/24 08:06:20;;;;;;;;;;;;;;;-144.99;99.74;52653.97;5037146;28;19944;-76
2022/01/24 08:08:46;;;;;;;;;;;;;;;-144.99;98.72;52700.84;5051376;28;19925;-75
2022/01/24 08:11:15;;;;;;;;;;;;;;;-144.99;97.62;52660.09;5052715;28;20386;-76
2022/01/24 08:13:41;;;;;;;;;;;;;;;-144.99;96.33;52651.94;5052776;28;19928;-75
2022/01/24 08:16:08;;;;;;;;;;;;;;;-144.99;96.20;52690.66;5046321;28;19952;-75
2022/01/24 08:18:34;;;;;;;;;;;;;;;-144.99;95.74;52660.09;5053515;28;19928;-75
2022/01/24 08:21:00;;;;;;;;;;;;;;;-144.99;95.55;52660.09;5046405;28;19925;-75
2022/01/24 08:23:27;;;;;;;;;;;;;;;-144.99;95.23;52631.53;5050641;28;19920;-75
2022/01/24 08:25:53;;;;;;;;;;;;;;;-144.99;95.53;52668.22;5054534;28;19921;-76
2022/01/24 08:28:21;;;;;;;;;;;;;;;-144.99;95.88;52713.09;5054447;28;19943;-75
2022/01/24 08:30:47;;;;;;;;;;;;;;;-144.99;95.89;52680.47;5057404;28;19931;-75
2022/01/24 08:33:14;;;;;;;;;;;;;;;-144.99;96.00;52668.22;5057316;28;19921;-74
2022/01/24 08:35:40;;;;;;;;;;;;;;;-144.99;96.05;52668.22;5057147;28;19931;-75
2022/01/24 08:38:06;;;;;;;;;;;;;;;-144.99;96.28;52702.88;5046744;28;20108;-75
2022/01/24 08:40:34;;;;;;;;;;;;;;;-144.99;96.10;52676.38;5059407;28;19928;-76
2022/01/24 08:43:03;;;;;;;;;;;;;;;-144.99;96.29;52713.09;5059097;28;19932;-75
2022/01/24 08:48:22;;;;;;;;;;;;;;;-144.99;96.58;52680.47;5045147;28;19931;-75
2022/01/24 08:50:50;;;;;;;;;;;;;;;-144.99;96.66;52680.47;5056360;28;20017;-75
2022/01/24 08:53:16;;;;;;;;;;;;;;;-144.99;96.83;52668.22;5057213;28;19921;-74
2022/01/24 08:55:43;;;;;;;;;;;;;;;-144.99;98.30;52692.69;5061214;28;19932;-75
2022/01/24 08:58:13;;;;;;;;;;;;;;;-144.99;97.71;52692.69;5062105;28;19921;-75
2022/01/24 09:00:41;;;;;;;;;;;;;;;-144.99;97.66;52702.88;5063795;28;20136;-76
2022/01/24 09:03:07;;;;;;;;;;;;;;;-144.99;97.12;52656.00;5066032;28;19970;-75
2022/01/24 09:05:35;;;;;;;;;;;;;;;-144.99;97.12;52664.16;5059594;28;19931;-75
2022/01/24 09:08:02;;;;;;;;;;;;;;;-144.99;96.53;52656.00;5058598;28;19932;-76
2022/01/24 09:10:29;;;;;;;;;;;;;;;-144.99;95.88;52696.78;5066835;28;19924;-75
2022/01/24 09:12:55;;;;;;;;;;;;;;;-144.99;95.03;52660.09;5066275;28;19925;-74
2022/01/24 09:15:22;;;;;;;;;;;;;;;-144.99;94.53;52651.94;5066797;28;19947;-75
2022/01/24 09:17:49;;;;;;;;;;;;;;;-144.99;94.78;52664.16;5061056;28;19992;-77
2022/01/24 09:20:16;;;;;;;;;;;;;;;-144.99;95.04;52680.47;5060616;28;19927;-75
2022/01/24 09:22:42;;;;;;;;;;;;;;;-144.99;94.79;52660.09;5062770;28;19996;-75
2022/01/24 09:25:10;;;;;;;;;;;;;;;-144.99;94.93;52680.47;5057031;28;19921;-75
2022/01/24 09:27:37;;;;;;;;;;;;;;;-144.99;95.08;52662.13;5058639;28;19921;-76
2022/01/24 09:30:04;;;;;;;;;;;;;;;-144.99;95.08;52700.84;5064740;28;19946;-75
2022/01/24 09:32:30;;;;;;;;;;;;;;;-144.99;95.25;52700.84;5058183;28;20401;-75
2022/01/24 09:34:58;;;;;;;;;;;;;;;-144.99;95.21;52676.38;5055427;28;20413;-76
2022/01/24 09:37:24;;;;;;;;;;;;;;;-144.99;94.90;52709.00;5050778;28;19924;-76
2022/01/24 09:39:51;;;;;;;;;;;;;;;-144.99;95.25;52676.38;5060490;28;19928;-73
2022/01/24 09:42:17;;;;;;;;;;;;;;;-144.99;95.42;52662.13;5062429;28;20067;-74
2022/01/24 09:44:46;;;;;;;;;;;;;;;-144.99;95.13;52692.69;5062496;28;19925;-75
2022/01/24 09:47:15;;;;;;;;;;;;;;;-144.99;95.46;52668.22;5054168;28;19917;-75
2022/01/24 09:49:42;;;;;;;;;;;;;;;-144.99;95.78;52674.34;5056006;28;20358;-74
2022/01/24 09:52:09;;;;;;;;;;;;;;;-144.99;95.41;52684.53;5065548;28;19931;-74
2022/01/24 09:54:36;;;;;;;;;;;;;;;-144.99;95.62;52676.38;5054401;28;19964;-75
2022/01/24 09:57:02;;;;;;;;;;;;;;;-144.99;95.30;52672.31;5054404;28;19935;-75
2022/01/24 09:59:30;;;;;;;;;;;;;;;-144.99;95.26;52684.53;5056354;28;20365;-75
2022/01/24 10:01:57;;;;;;;;;;;;;;;-144.99;95.24;52721.22;5058273;28;19925;-75
2022/01/24 10:04:25;;;;;;;;;;;;;;;-144.99;95.10;52651.94;5043196;28;19964;-75
2022/01/24 10:07:05;;;;;;;;;;;;;;;-144.99;94.69;52711.03;5057052;28;20250;-75
2022/01/24 10:09:35;;;;;;;;;;;;;;;-144.99;94.51;52696.78;5053051;28;19940;-77
2022/01/24 10:12:11;;;;;;;;;;;;;;;-144.99;94.51;52668.22;5050117;28;19928;-76
2022/01/24 10:17:23;;;;;;;;;;;;;;;-144.99;94.60;52688.63;5050349;28;19931;-73
2022/01/24 10:19:50;;;;;;;;;;;;;;;-144.99;94.76;52688.63;5051511;28;19928;-75
2022/01/24 10:22:17;;;;;;;;;;;;;;;-144.99;94.32;52700.84;5063041;28;19952;-76
2022/01/24 10:24:46;;;;;;;;;;;;;;;-144.99;94.46;52672.31;5062466;28;19925;-77
2022/01/24 10:27:15;;;;;;;;;;;;;;;-144.99;94.91;52670.28;5058903;28;20401;-75
2022/01/24 10:29:42;;;;;;;;;;;;;;;-144.99;95.20;52670.28;5053539;28;19931;-75
2022/01/24 10:32:26;;;;;;;;;;;;;;;-144.99;95.21;52678.44;5061278;28;19932;-76
2022/01/24 10:34:52;;;;;;;;;;;;;;;-144.99;94.79;52713.09;5048710;28;19921;-74
2022/01/24 10:37:21;;;;;;;;;;;;;;;-144.99;94.53;52639.69;5051392;28;19920;-75
2022/01/24 10:39:56;;;;;;;;;;;;;;;-144.99;95.10;52639.69;5051095;28;19925;-74
2022/01/24 10:45:11;;;;;;;;;;;;;;;-144.99;94.03;52668.22;5043296;28;19932;-74
2022/01/24 10:47:44;;;;;;;;;;;;;;;-144.99;94.64;52651.94;5052115;28;19978;-74
2022/01/24 10:50:11;;;;;;;;;;;;;;;-144.99;94.72;52664.16;5050793;28;19933;-75
2022/01/24 10:52:38;;;;;;;;;;;;;;;-144.99;94.17;52676.38;5052256;28;20024;-75
2022/01/24 10:55:14;;;;;;;;;;;;;;;-144.99;94.01;52674.34;5048945;28;19931;-76
2022/01/24 10:57:41;;;;;;;;;;;;;;;-144.99;93.68;52717.16;5037811;28;19921;-76
2022/01/24 11:00:10;;;;;;;;;;;;;;;-144.99;93.64;52656.00;5048789;28;20007;-73
2022/01/24 11:02:40;;;;;;;;;;;;;;;-144.99;93.96;52717.16;5051945;28;20221;-74
2022/01/24 11:05:10;;;;;;;;;;;;;;;-144.99;93.38;52692.69;5050099;28;19924;-75
2022/01/24 11:07:46;;;;;;;;;;;;;;;-144.99;93.14;52668.22;5053410;28;20012;-76
2022/01/24 11:10:14;;;;;;;;;;;;;;;-144.99;93.70;52647.84;5056913;28;19948;-74
2022/01/24 11:12:40;;;;;;;;;;;;;;;-144.99;93.13;52647.84;5055550;28;20383;-75
2022/01/24 11:15:07;;;;;;;;;;;;;;;-144.99;93.60;52668.22;5056526;28;19931;-75
2022/01/24 11:17:35;;;;;;;;;;;;;;;-144.99;93.59;52684.53;5055548;28;19940;-73
2022/01/24 11:20:03;;;;;;;;;;;;;;;-144.99;93.33;52688.63;5058039;28;19924;-74
2022/01/24 11:22:31;;;;;;;;;;;;;;;-144.99;92.91;52709.00;5055289;28;20019;-74
2022/01/24 11:25:01;;;;;;;;;;;;;;;-144.99;92.77;52704.94;5051801;28;19959;-73
2022/01/24 11:27:29;;;;;;;;;;;;;;;-144.99;92.50;52684.53;5060671;28;19924;-74
2022/01/24 11:29:57;;;;;;;;;;;;;;;-144.99;93.17;52717.16;5069076;28;20474;-74
2022/01/24 11:32:25;;;;;;;;;;;;;;;-144.99;93.10;52672.31;5056248;28;19925;-73
2022/01/24 11:34:52;;;;;;;;;;;;;;;-144.99;93.06;52668.22;5063988;28;19932;-74
2022/01/24 11:37:32;;;;;;;;;;;;;;;-144.99;93.20;52686.59;5060577;28;19959;-74
2022/01/24 11:39:59;;;;;;;;;;;;;;;-144.99;92.86;52706.97;5056650;28;19949;-76
2022/01/24 11:42:30;;;;;;;;;;;;;;;-144.99;93.58;52692.69;5055114;28;19928;-74
2022/01/24 11:45:02;;;;;;;;;;;;;;;-144.99;92.99;52647.84;5061465;28;20714;-74
2022/01/24 11:47:31;;;;;;;;;;;;;;;-144.99;92.50;52674.34;5061942;28;19932;-74
2022/01/24 11:49:57;;;;;;;;;;;;;;;-144.99;91.95;52709.00;5061997;28;19927;-76
2022/01/24 11:52:29;;;;;;;;;;;;;;;-144.99;90.57;52696.78;5061134;28;19930;-73
2022/01/24 11:55:06;;;;;;;;;;;;;;;-144.99;90.58;52668.22;5059890;28;19932;-75
2022/01/24 11:57:38;;;;;;;;;;;;;;;-144.99;90.37;52668.22;5047110;28;19932;-75
2022/01/24 12:00:22;;;;;;;;;;;;;;;-144.99;89.41;52721.22;5047277;28;19951;-73
2022/01/24 12:02:50;;;;;;;;;;;;;;;-144.99;88.92;52682.50;5060189;28;19929;-74
2022/01/24 12:05:17;;;;;;;;;;;;;;;-144.99;88.69;52688.63;5054491;28;19924;-78
2022/01/24 12:07:44;;;;;;;;;;;;;;;-144.99;87.99;52704.94;5062333;28;19925;-74
2022/01/24 12:10:34;;;;;;;;;;;;;;;-144.99;87.62;52680.47;5061490;28;19980;-76
2022/01/24 12:13:04;;;;;;;;;;;;;;;-144.99;87.87;52684.53;5061824;28;19960;-80
2022/01/24 12:16:00;;;;;;;;;;;;;;;-144.99;87.49;52668.22;5055146;28;19968;-74
2022/01/24 12:18:45;;;;;;;;;;;;;;;-144.99;87.68;52704.94;4995673;28;20060;-75
2022/01/24 12:21:12;;;;;;;;;;;;;;;-144.99;87.96;52649.88;5037480;28;20375;-75
2022/01/24 12:23:39;;;;;;;;;;;;;;;-144.99;88.35;52700.84;5054907;28;19920;-74
2022/01/24 12:26:07;;;;;;;;;;;;;;;-144.99;88.46;52688.63;5044488;28;19943;-76
2022/01/24 12:28:45;;;;;;;;;;;;;;;-144.99;88.67;52651.94;5057560;28;19935;-75
2022/01/24 12:31:17;;;;;;;;;;;;;;;-144.99;89.21;52609.13;5058028;28;19925;-78
2022/01/24 12:33:45;;;;;;;;;;;;;;;-144.99;89.20;52643.78;5056188;28;20434;-77
2022/01/24 12:36:13;;;;;;;;;;;;;;;-144.99;89.61;52676.38;5054169;28;19928;-78
2022/01/24 12:38:41;;;;;;;;;;;;;;;-144.99;89.40;52680.47;5053845;28;19925;-76
2022/01/24 12:41:17;;;;;;;;;;;;;;;-144.99;89.30;52674.34;5054665;28;19972;-76
2022/01/24 12:43:58;;;;;;;;;;;;;;;-144.99;89.05;52670.28;5055478;28;19921;-76
2022/01/24 12:46:26;;;;;;;;;;;;;;;-144.99;88.86;52692.69;5045014;28;19979;-73
2022/01/24 12:48:52;;;;;;;;;;;;;;;-144.99;89.32;52688.63;5053644;28;19947;-75
2022/01/24 12:51:21;;;;;;;;;;;;;;;-144.99;88.89;52656.00;5052633;28;19932;-74
2022/01/24 12:53:47;;;;;;;;;;;;;;;-144.99;88.84;52647.84;5051361;28;20448;-75
2022/01/24 12:56:15;;;;;;;;;;;;;;;-144.99;88.63;52656.00;5046088;28;19921;-75
2022/01/24 12:58:42;;;;;;;;;;;;;;;-144.99;88.83;52637.66;5045563;28;19956;-76
2022/01/24 13:01:21;;;;;;;;;;;;;;;-144.99;88.54;52702.88;5050989;28;19928;-76
2022/01/24 13:03:48;;;;;;;;;;;;;;;-144.99;89.14;52749.78;5050558;28;20438;-75
2022/01/24 13:06:16;;;;;;;;;;;;;;;-144.99;89.07;52676.38;5035511;28;19964;-77
2022/01/24 13:08:51;;;;;;;;;;;;;;;-144.99;89.14;52700.84;5049394;28;19964;-75
2022/01/24 13:11:18;;;;;;;;;;;;;;;-144.99;89.57;52676.38;5051321;28;19964;-76
2022/01/24 13:13:57;;;;;;;;;;;;;;;-144.99;89.10;52676.38;5041554;28;19925;-75
2022/01/24 13:22:08;;;;;;;;;;;;;;;-144.99;88.92;52676.38;5051141;28;19927;-74
2022/01/24 13:24:34;;;;;;;;;;;;;;;-144.99;89.16;52723.28;5044153;28;20019;-75
2022/01/24 13:27:05;;;;;;;;;;;;;;;-144.99;88.91;52719.19;5042150;28;19924;-76
2022/01/24 13:29:37;;;;;;;;;;;;;;;-144.99;89.41;52696.78;5047781;28;19924;-76
2022/01/24 13:32:03;;;;;;;;;;;;;;;-144.99;89.15;52700.84;5045035;28;19971;-76
2022/01/24 13:34:31;;;;;;;;;;;;;;;-144.99;88.86;52627.47;5050457;28;19932;-74
2022/01/24 13:37:05;;;;;;;;;;;;;;;-144.99;89.13;52684.53;5050895;28;19950;-74
2022/01/24 13:39:32;;;;;;;;;;;;;;;-144.99;88.69;52684.53;5050540;28;20306;-75